Indianapolis, Indiana
Current Conditions -  °F | °C
As of 7:54 AM on Tuesday 21 Oct 2014 (Local Time) from KIND Reporting Station
Overcast Overcast  
Wind Chill: 43°   Ceiling: 4800
Heat Index: 47°   Visibility: 9mi
Dew Point: 44°   Wind: 8mph
Humidity: 90%   Direction: 310°NW
Pressure: 30.03"   Gusts: NA
Location:  39.77°N, 86.15°W
Report Text: KIND 211154Z 31007KT 9SM FEW020 OVC048 08/07 A3003 RMK AO2 SLP170 T00830067 10094 20067 53015
Loading
Personal Weather Stations






























Interactive Weather Map
Tropical Storm Tracking
New forecast layout! Learn more

10-Day Weather Forecast

Advertisements
Track Severe Weather on mobile